CheckWX is a tool to help pilots better visualize weather data.  It is not intended as a substitute for an official pre-flight weather briefing.

00:43:48 UTC

KVLD TAF
Valdosta Regional Airport
Valdosta, Georgia, USA
KVLD 260528Z 2606/2706 09003KT P6SM BKN025 FM261800 08008KT P6SM VCTS BKN025CB FM270000 07007KT P6SM BKN015

May-26@
06:00 UTC

May-26 @ 06:00 UTC

May-26@
18:00 UTC

May-26 @ 18:00 UTC

TAF KVLD 260528Z 2606/2706 09003KT P6SM BKN025

Expired

Wind
  • 090° at 3 KTS
Cloud Levels
  • Broken at 2,500' AGL

May-26@
18:00 UTC

May-26 @ 18:00 UTC

May-27@
00:00 UTC

May-27 @ 00:00 UTC

FM261800 08008KT P6SM VCTS BKN025CB

Expired

Wind
  • 080° at 8 KTS
Conditions
Area Thunderstorm
Cloud Levels
  • Broken at 2,500' AGL

May-27@
00:00 UTC

May-27 @ 00:00 UTC

May-27@
06:00 UTC

May-27 @ 06:00 UTC

FM270000 07007KT P6SM BKN015

From

From Standard forecast or significant change

Wind
  • 070° at 7 KTS
Cloud Levels
  • Broken at 1,500' AGL